sensor_id;sensor_type;location;lat;lon;timestamp;P1;durP1;ratioP1;P2;durP2;ratioP2
28068;SDS011;15382;47.578;8.086;2022-10-23T00:07:06;7.93;;;2.70;;
28068;SDS011;15382;47.578;8.086;2022-10-23T00:17:07;4.73;;;2.70;;
28068;SDS011;15382;47.578;8.086;2022-10-23T00:27:09;12.98;;;3.10;;
28068;SDS011;15382;47.578;8.086;2022-10-23T00:37:10;13.50;;;4.73;;
28068;SDS011;15382;47.578;8.086;2022-10-23T00:47:12;6.60;;;2.20;;
28068;SDS011;15382;47.578;8.086;2022-10-23T00:57:13;4.22;;;2.17;;
28068;SDS011;15382;47.578;8.086;2022-10-23T01:17:35;12.70;;;3.03;;
28068;SDS011;15382;47.578;8.086;2022-10-23T01:27:43;10.43;;;2.60;;
28068;SDS011;15382;47.578;8.086;2022-10-23T01:37:52;9.25;;;2.60;;
28068;SDS011;15382;47.578;8.086;2022-10-23T01:47:54;7.95;;;2.88;;
28068;SDS011;15382;47.578;8.086;2022-10-23T01:57:57;6.10;;;2.47;;
28068;SDS011;15382;47.578;8.086;2022-10-23T02:08:08;3.28;;;2.28;;
28068;SDS011;15382;47.578;8.086;2022-10-23T02:28:31;7.28;;;2.88;;
28068;SDS011;15382;47.578;8.086;2022-10-23T02:38:39;4.13;;;2.20;;
28068;SDS011;15382;47.578;8.086;2022-10-23T02:48:43;14.40;;;2.35;;
28068;SDS011;15382;47.578;8.086;2022-10-23T02:59:09;7.30;;;2.03;;
28068;SDS011;15382;47.578;8.086;2022-10-23T03:09:31;10.27;;;1.85;;
28068;SDS011;15382;47.578;8.086;2022-10-23T03:19:31;12.23;;;2.30;;
28068;SDS011;15382;47.578;8.086;2022-10-23T03:29:32;4.97;;;2.20;;
28068;SDS011;15382;47.578;8.086;2022-10-23T03:39:33;4.53;;;1.83;;
28068;SDS011;15382;47.578;8.086;2022-10-23T03:49:34;5.17;;;2.03;;
28068;SDS011;15382;47.578;8.086;2022-10-23T03:59:39;4.22;;;1.70;;
28068;SDS011;15382;47.578;8.086;2022-10-23T04:19:42;5.55;;;2.00;;
28068;SDS011;15382;47.578;8.086;2022-10-23T04:29:43;5.07;;;2.07;;
28068;SDS011;15382;47.578;8.086;2022-10-23T04:39:44;6.13;;;1.60;;
28068;SDS011;15382;47.578;8.086;2022-10-23T04:49:47;6.15;;;2.00;;
28068;SDS011;15382;47.578;8.086;2022-10-23T05:00:08;3.55;;;1.48;;
28068;SDS011;15382;47.578;8.086;2022-10-23T05:10:23;6.22;;;1.80;;
28068;SDS011;15382;47.578;8.086;2022-10-23T05:20:44;8.82;;;2.42;;
28068;SDS011;15382;47.578;8.086;2022-10-23T05:30:47;11.73;;;2.75;;
28068;SDS011;15382;47.578;8.086;2022-10-23T05:40:50;4.28;;;1.95;;
28068;SDS011;15382;47.578;8.086;2022-10-23T05:50:53;5.03;;;2.17;;
28068;SDS011;15382;47.578;8.086;2022-10-23T06:01:03;5.97;;;2.25;;
28068;SDS011;15382;47.578;8.086;2022-10-23T06:11:28;10.95;;;2.90;;
28068;SDS011;15382;47.578;8.086;2022-10-23T06:21:35;6.80;;;4.38;;
28068;SDS011;15382;47.578;8.086;2022-10-23T06:31:37;6.78;;;4.68;;
28068;SDS011;15382;47.578;8.086;2022-10-23T06:41:39;5.30;;;3.20;;
28068;SDS011;15382;47.578;8.086;2022-10-23T06:51:41;6.25;;;3.70;;
28068;SDS011;15382;47.578;8.086;2022-10-23T07:01:46;12.48;;;3.65;;
28068;SDS011;15382;47.578;8.086;2022-10-23T07:11:48;4.65;;;3.03;;
28068;SDS011;15382;47.578;8.086;2022-10-23T07:21:49;5.07;;;3.25;;
28068;SDS011;15382;47.578;8.086;2022-10-23T07:32:02;44.97;;;4.30;;
28068;SDS011;15382;47.578;8.086;2022-10-23T07:52:04;15.52;;;3.67;;
28068;SDS011;15382;47.578;8.086;2022-10-23T08:02:23;48.03;;;6.20;;
28068;SDS011;15382;47.578;8.086;2022-10-23T08:12:23;4.80;;;3.10;;
28068;SDS011;15382;47.578;8.086;2022-10-23T08:22:24;50.47;;;5.10;;
28068;SDS011;15382;47.578;8.086;2022-10-23T08:32:28;6.87;;;4.73;;
28068;SDS011;15382;47.578;8.086;2022-10-23T08:42:35;14.60;;;5.45;;
28068;SDS011;15382;47.578;8.086;2022-10-23T08:52:39;11.45;;;6.55;;
28068;SDS011;15382;47.578;8.086;2022-10-23T09:02:45;52.78;;;9.02;;
28068;SDS011;15382;47.578;8.086;2022-10-23T09:12:50;11.95;;;7.30;;
28068;SDS011;15382;47.578;8.086;2022-10-23T09:22:58;15.53;;;7.57;;
28068;SDS011;15382;47.578;8.086;2022-10-23T09:33:12;10.98;;;7.40;;
28068;SDS011;15382;47.578;8.086;2022-10-23T09:43:14;12.07;;;6.90;;
28068;SDS011;15382;47.578;8.086;2022-10-23T09:53:21;12.25;;;6.45;;
28068;SDS011;15382;47.578;8.086;2022-10-23T10:03:24;31.15;;;12.65;;
28068;SDS011;15382;47.578;8.086;2022-10-23T10:54:51;6.83;;;3.23;;
28068;SDS011;15382;47.578;8.086;2022-10-23T11:15:34;9.45;;;3.35;;
28068;SDS011;15382;47.578;8.086;2022-10-23T11:56:23;8.80;;;3.50;;
28068;SDS011;15382;47.578;8.086;2022-10-23T12:06:29;5.15;;;2.95;;
28068;SDS011;15382;47.578;8.086;2022-10-23T12:16:37;5.97;;;4.20;;
28068;SDS011;15382;47.578;8.086;2022-10-23T12:26:55;5.70;;;3.50;;
28068;SDS011;15382;47.578;8.086;2022-10-23T12:47:17;5.50;;;3.15;;
28068;SDS011;15382;47.578;8.086;2022-10-23T12:57:22;5.53;;;3.03;;
28068;SDS011;15382;47.578;8.086;2022-10-23T13:07:30;8.67;;;3.23;;
28068;SDS011;15382;47.578;8.086;2022-10-23T13:17:40;12.85;;;4.88;;
28068;SDS011;15382;47.578;8.086;2022-10-23T13:27:43;5.15;;;3.80;;
28068;SDS011;15382;47.578;8.086;2022-10-23T13:37:44;10.53;;;4.60;;
28068;SDS011;15382;47.578;8.086;2022-10-23T13:47:44;12.40;;;4.30;;
28068;SDS011;15382;47.578;8.086;2022-10-23T13:57:45;7.43;;;3.50;;
28068;SDS011;15382;47.578;8.086;2022-10-23T14:07:46;8.77;;;4.37;;
28068;SDS011;15382;47.578;8.086;2022-10-23T14:17:47;11.40;;;4.63;;
28068;SDS011;15382;47.578;8.086;2022-10-23T14:27:48;10.50;;;4.90;;
28068;SDS011;15382;47.578;8.086;2022-10-23T14:37:49;6.77;;;4.43;;
28068;SDS011;15382;47.578;8.086;2022-10-23T14:47:49;15.50;;;5.23;;
28068;SDS011;15382;47.578;8.086;2022-10-23T14:57:53;13.77;;;4.30;;
28068;SDS011;15382;47.578;8.086;2022-10-23T15:07:55;9.18;;;4.22;;
28068;SDS011;15382;47.578;8.086;2022-10-23T15:17:57;6.53;;;3.58;;
28068;SDS011;15382;47.578;8.086;2022-10-23T15:27:58;5.63;;;2.80;;
28068;SDS011;15382;47.578;8.086;2022-10-23T15:37:59;7.47;;;2.83;;
28068;SDS011;15382;47.578;8.086;2022-10-23T15:47:59;5.17;;;3.33;;
28068;SDS011;15382;47.578;8.086;2022-10-23T15:58:01;7.25;;;4.18;;
28068;SDS011;15382;47.578;8.086;2022-10-23T16:08:04;5.68;;;3.28;;
28068;SDS011;15382;47.578;8.086;2022-10-23T16:18:05;6.38;;;3.00;;
28068;SDS011;15382;47.578;8.086;2022-10-23T16:28:07;9.80;;;3.30;;
28068;SDS011;15382;47.578;8.086;2022-10-23T16:38:08;5.87;;;3.43;;
28068;SDS011;15382;47.578;8.086;2022-10-23T16:48:09;12.50;;;3.07;;
28068;SDS011;15382;47.578;8.086;2022-10-23T16:58:10;4.50;;;2.83;;
28068;SDS011;15382;47.578;8.086;2022-10-23T17:08:11;6.73;;;3.30;;
28068;SDS011;15382;47.578;8.086;2022-10-23T17:18:12;3.83;;;2.70;;
28068;SDS011;15382;47.578;8.086;2022-10-23T17:28:12;8.23;;;2.70;;
28068;SDS011;15382;47.578;8.086;2022-10-23T17:38:14;3.97;;;2.30;;
28068;SDS011;15382;47.578;8.086;2022-10-23T17:48:18;7.32;;;1.77;;
28068;SDS011;15382;47.578;8.086;2022-10-23T17:58:19;7.17;;;3.03;;
28068;SDS011;15382;47.578;8.086;2022-10-23T18:08:19;9.10;;;3.87;;
28068;SDS011;15382;47.578;8.086;2022-10-23T18:18:20;9.97;;;5.27;;
28068;SDS011;15382;47.578;8.086;2022-10-23T18:28:21;6.60;;;3.10;;
28068;SDS011;15382;47.578;8.086;2022-10-23T18:38:22;7.47;;;2.85;;
28068;SDS011;15382;47.578;8.086;2022-10-23T18:48:23;9.57;;;2.87;;
28068;SDS011;15382;47.578;8.086;2022-10-23T18:58:24;5.07;;;3.03;;
28068;SDS011;15382;47.578;8.086;2022-10-23T19:08:25;8.57;;;3.07;;
28068;SDS011;15382;47.578;8.086;2022-10-23T19:18:25;7.97;;;3.17;;
28068;SDS011;15382;47.578;8.086;2022-10-23T19:28:27;4.40;;;2.80;;
28068;SDS011;15382;47.578;8.086;2022-10-23T19:38:28;6.37;;;3.93;;
28068;SDS011;15382;47.578;8.086;2022-10-23T19:48:29;9.90;;;3.50;;
28068;SDS011;15382;47.578;8.086;2022-10-23T19:58:30;11.87;;;2.00;;
28068;SDS011;15382;47.578;8.086;2022-10-23T20:08:30;2.70;;;1.03;;
28068;SDS011;15382;47.578;8.086;2022-10-23T20:18:31;4.87;;;1.30;;
28068;SDS011;15382;47.578;8.086;2022-10-23T20:28:33;7.68;;;1.20;;
28068;SDS011;15382;47.578;8.086;2022-10-23T20:38:34;13.45;;;1.38;;
28068;SDS011;15382;47.578;8.086;2022-10-23T20:48:35;7.93;;;1.00;;
28068;SDS011;15382;47.578;8.086;2022-10-23T20:58:37;8.20;;;1.92;;
28068;SDS011;15382;47.578;8.086;2022-10-23T21:08:38;5.23;;;1.13;;
28068;SDS011;15382;47.578;8.086;2022-10-23T21:18:40;5.38;;;1.20;;
28068;SDS011;15382;47.578;8.086;2022-10-23T21:28:44;4.17;;;0.93;;
28068;SDS011;15382;47.578;8.086;2022-10-23T21:38:58;5.55;;;0.88;;
28068;SDS011;15382;47.578;8.086;2022-10-23T21:49:01;11.43;;;1.23;;
28068;SDS011;15382;47.578;8.086;2022-10-23T22:19:06;8.23;;;1.15;;
28068;SDS011;15382;47.578;8.086;2022-10-23T22:29:10;12.23;;;1.40;;
28068;SDS011;15382;47.578;8.086;2022-10-23T22:39:12;10.43;;;1.23;;
28068;SDS011;15382;47.578;8.086;2022-10-23T22:49:13;8.40;;;1.37;;
28068;SDS011;15382;47.578;8.086;2022-10-23T22:59:14;9.07;;;2.33;;
28068;SDS011;15382;47.578;8.086;2022-10-23T23:09:15;6.73;;;1.20;;
28068;SDS011;15382;47.578;8.086;2022-10-23T23:19:17;12.32;;;1.88;;
28068;SDS011;15382;47.578;8.086;2022-10-23T23:29:18;9.30;;;1.80;;
28068;SDS011;15382;47.578;8.086;2022-10-23T23:39:19;10.70;;;2.40;;
28068;SDS011;15382;47.578;8.086;2022-10-23T23:49:20;8.07;;;2.10;;
28068;SDS011;15382;47.578;8.086;2022-10-23T23:59:21;10.83;;;2.00;;
